Neguac, Canada
Current Conditions -  °F | °C
As of 4:00 AM on Thursday 27 Nov 2014 (Local Time) from CZBF Reporting Station
Light Snow Light Snow  
Wind Chill: 16°   Ceiling: 600
Heat Index: 27°   Visibility: 0.62mi
Dew Point: 27°   Wind: 12mph
Humidity: 100%   Direction: 40°NE
Pressure: 29.91"   Gusts: 21mph
Location:  47.23°N, 65.05°W
Report Text: CZBF 270800Z 04010G18KT 5/8SM -SN VV006 M03/M03 A2991 RMK SN8 /S04/ PRESFR SLP131
Loading
Personal Weather Stations






























Interactive Weather Map New forecast layout! Learn more

10-Day Weather Forecast

Advertisements
Track Severe Weather on mobile